Alcester, South Dakota
Current Conditions -  °F | °C
As of 4:35 PM on Monday 20 Oct 2014 (Local Time) from KLRJ Reporting Station
Clear Clear  
Wind Chill: 70°   Ceiling: Unl
Heat Index: 70°   Visibility: 7mi
Dew Point: 39°   Wind: 9mph
Humidity: 33%   Direction: 350°N
Pressure: 30.04"   Gusts: NA
Location:  43.02°N, 96.63°W
Report Text: KLRJ 202135Z AUTO 35008KT 7SM CLR 21/04 A3004 RMK AO2
Loading
Personal Weather Stations






























Interactive Weather Map
Tropical Storm Tracking
New forecast layout! Learn more

10-Day Weather Forecast

Advertisements
Track Severe Weather on mobile